sensor_id;sensor_type;location;lat;lon;timestamp;P1;durP1;ratioP1;P2;durP2;ratioP2
1300;SDS011;59099;48.806;9.160;2022-09-02T00:00:44;7.53;;;6.70;;
1300;SDS011;59099;48.806;9.160;2022-09-02T00:03:12;7.10;;;6.40;;
1300;SDS011;59099;48.806;9.160;2022-09-02T00:05:38;8.00;;;7.20;;
1300;SDS011;59099;48.806;9.160;2022-09-02T00:08:04;6.77;;;6.27;;
1300;SDS011;59099;48.806;9.160;2022-09-02T00:10:33;8.30;;;7.50;;
1300;SDS011;59099;48.806;9.160;2022-09-02T00:13:04;6.67;;;6.17;;
1300;SDS011;59099;48.806;9.160;2022-09-02T00:15:31;7.33;;;6.73;;
1300;SDS011;59099;48.806;9.160;2022-09-02T00:17:58;7.70;;;7.00;;
1300;SDS011;59099;48.806;9.160;2022-09-02T00:20:25;8.90;;;8.00;;
1300;SDS011;59099;48.806;9.160;2022-09-02T00:22:52;7.93;;;6.07;;
1300;SDS011;59099;48.806;9.160;2022-09-02T00:25:18;7.03;;;6.43;;
1300;SDS011;59099;48.806;9.160;2022-09-02T00:27:44;7.67;;;7.07;;
1300;SDS011;59099;48.806;9.160;2022-09-02T00:30:10;7.80;;;7.10;;
1300;SDS011;59099;48.806;9.160;2022-09-02T00:32:37;7.00;;;6.50;;
1300;SDS011;59099;48.806;9.160;2022-09-02T00:35:03;7.53;;;6.93;;
1300;SDS011;59099;48.806;9.160;2022-09-02T00:37:30;8.57;;;7.50;;
1300;SDS011;59099;48.806;9.160;2022-09-02T00:39:55;9.73;;;6.90;;
1300;SDS011;59099;48.806;9.160;2022-09-02T00:42:23;7.40;;;6.70;;
1300;SDS011;59099;48.806;9.160;2022-09-02T00:44:50;7.20;;;6.60;;
1300;SDS011;59099;48.806;9.160;2022-09-02T00:47:16;7.63;;;6.83;;
1300;SDS011;59099;48.806;9.160;2022-09-02T00:49:44;7.90;;;7.20;;
1300;SDS011;59099;48.806;9.160;2022-09-02T00:52:18;7.53;;;6.93;;
1300;SDS011;59099;48.806;9.160;2022-09-02T00:54:58;8.50;;;7.80;;
1300;SDS011;59099;48.806;9.160;2022-09-02T00:57:28;7.10;;;6.60;;
1300;SDS011;59099;48.806;9.160;2022-09-02T01:00:17;7.00;;;6.30;;
1300;SDS011;59099;48.806;9.160;2022-09-02T01:02:46;7.00;;;6.47;;
1300;SDS011;59099;48.806;9.160;2022-09-02T01:05:16;7.90;;;7.30;;
1300;SDS011;59099;48.806;9.160;2022-09-02T01:07:43;7.93;;;7.33;;
1300;SDS011;59099;48.806;9.160;2022-09-02T01:10:11;7.47;;;6.90;;
1300;SDS011;59099;48.806;9.160;2022-09-02T01:12:43;7.07;;;6.47;;
1300;SDS011;59099;48.806;9.160;2022-09-02T01:15:10;7.43;;;6.80;;
1300;SDS011;59099;48.806;9.160;2022-09-02T01:17:41;7.97;;;7.33;;
1300;SDS011;59099;48.806;9.160;2022-09-02T01:20:11;7.53;;;6.83;;
1300;SDS011;59099;48.806;9.160;2022-09-02T01:22:40;7.10;;;6.50;;
1300;SDS011;59099;48.806;9.160;2022-09-02T01:25:23;7.93;;;7.23;;
1300;SDS011;59099;48.806;9.160;2022-09-02T01:27:51;8.40;;;7.60;;
1300;SDS011;59099;48.806;9.160;2022-09-02T01:30:23;7.63;;;7.03;;
1300;SDS011;59099;48.806;9.160;2022-09-02T01:32:49;6.73;;;6.23;;
1300;SDS011;59099;48.806;9.160;2022-09-02T01:35:16;7.37;;;6.80;;
1300;SDS011;59099;48.806;9.160;2022-09-02T01:37:43;7.40;;;6.43;;
1300;SDS011;59099;48.806;9.160;2022-09-02T01:40:13;7.50;;;6.90;;
1300;SDS011;59099;48.806;9.160;2022-09-02T01:42:42;6.60;;;6.10;;
1300;SDS011;59099;48.806;9.160;2022-09-02T01:45:09;7.20;;;6.70;;
1300;SDS011;59099;48.806;9.160;2022-09-02T01:47:35;7.77;;;7.07;;
1300;SDS011;59099;48.806;9.160;2022-09-02T01:50:06;6.47;;;5.93;;
1300;SDS011;59099;48.806;9.160;2022-09-02T01:52:33;7.70;;;7.00;;
1300;SDS011;59099;48.806;9.160;2022-09-02T01:55:00;6.93;;;6.43;;
1300;SDS011;59099;48.806;9.160;2022-09-02T01:57:26;6.97;;;6.23;;
1300;SDS011;59099;48.806;9.160;2022-09-02T01:59:52;6.57;;;6.07;;
1300;SDS011;59099;48.806;9.160;2022-09-02T02:02:20;6.63;;;6.03;;
1300;SDS011;59099;48.806;9.160;2022-09-02T02:04:47;7.10;;;6.50;;
1300;SDS011;59099;48.806;9.160;2022-09-02T02:07:14;7.90;;;7.20;;
1300;SDS011;59099;48.806;9.160;2022-09-02T02:09:45;7.33;;;6.63;;
1300;SDS011;59099;48.806;9.160;2022-09-02T02:12:14;6.20;;;5.70;;
1300;SDS011;59099;48.806;9.160;2022-09-02T02:14:40;7.47;;;6.77;;
1300;SDS011;59099;48.806;9.160;2022-09-02T02:17:06;6.50;;;5.90;;
1300;SDS011;59099;48.806;9.160;2022-09-02T02:19:35;7.37;;;6.77;;
1300;SDS011;59099;48.806;9.160;2022-09-02T02:22:02;7.33;;;6.60;;
1300;SDS011;59099;48.806;9.160;2022-09-02T02:24:28;6.40;;;5.90;;
1300;SDS011;59099;48.806;9.160;2022-09-02T02:26:54;7.90;;;6.63;;
1300;SDS011;59099;48.806;9.160;2022-09-02T02:29:20;7.03;;;6.53;;
1300;SDS011;59099;48.806;9.160;2022-09-02T02:31:47;7.43;;;6.73;;
1300;SDS011;59099;48.806;9.160;2022-09-02T02:34:13;6.80;;;6.20;;
1300;SDS011;59099;48.806;9.160;2022-09-02T02:36:40;6.57;;;6.00;;
1300;SDS011;59099;48.806;9.160;2022-09-02T02:39:06;7.87;;;6.57;;
1300;SDS011;59099;48.806;9.160;2022-09-02T02:41:34;7.33;;;6.50;;
1300;SDS011;59099;48.806;9.160;2022-09-02T02:44:01;7.53;;;6.83;;
1300;SDS011;59099;48.806;9.160;2022-09-02T02:46:28;7.73;;;6.13;;
1300;SDS011;59099;48.806;9.160;2022-09-02T02:48:59;6.90;;;6.27;;
1300;SDS011;59099;48.806;9.160;2022-09-02T02:51:26;7.80;;;6.87;;
1300;SDS011;59099;48.806;9.160;2022-09-02T02:53:54;6.73;;;6.23;;
1300;SDS011;59099;48.806;9.160;2022-09-02T02:56:20;6.83;;;6.33;;
1300;SDS011;59099;48.806;9.160;2022-09-02T02:58:49;7.00;;;6.50;;
1300;SDS011;59099;48.806;9.160;2022-09-02T03:01:15;7.40;;;6.77;;
1300;SDS011;59099;48.806;9.160;2022-09-02T03:03:41;7.40;;;6.80;;
1300;SDS011;59099;48.806;9.160;2022-09-02T03:06:08;6.77;;;6.07;;
1300;SDS011;59099;48.806;9.160;2022-09-02T03:08:34;7.30;;;6.70;;
1300;SDS011;59099;48.806;9.160;2022-09-02T03:11:03;6.77;;;6.27;;
1300;SDS011;59099;48.806;9.160;2022-09-02T03:13:33;9.57;;;6.27;;
1300;SDS011;59099;48.806;9.160;2022-09-02T03:16:00;7.17;;;6.20;;
1300;SDS011;59099;48.806;9.160;2022-09-02T03:18:29;6.27;;;5.77;;
1300;SDS011;59099;48.806;9.160;2022-09-02T03:20:56;6.13;;;5.63;;
1300;SDS011;59099;48.806;9.160;2022-09-02T03:23:24;7.80;;;7.10;;
1300;SDS011;59099;48.806;9.160;2022-09-02T03:25:54;6.60;;;6.10;;
1300;SDS011;59099;48.806;9.160;2022-09-02T03:28:33;6.50;;;6.00;;
1300;SDS011;59099;48.806;9.160;2022-09-02T03:31:01;6.93;;;6.23;;
1300;SDS011;59099;48.806;9.160;2022-09-02T03:33:27;7.10;;;6.50;;
1300;SDS011;59099;48.806;9.160;2022-09-02T03:35:54;6.37;;;5.73;;
1300;SDS011;59099;48.806;9.160;2022-09-02T03:38:20;6.97;;;6.47;;
1300;SDS011;59099;48.806;9.160;2022-09-02T03:40:46;7.17;;;6.57;;
1300;SDS011;59099;48.806;9.160;2022-09-02T03:43:12;5.97;;;5.57;;
1300;SDS011;59099;48.806;9.160;2022-09-02T03:45:39;6.40;;;5.90;;
1300;SDS011;59099;48.806;9.160;2022-09-02T03:48:10;7.20;;;6.30;;
1300;SDS011;59099;48.806;9.160;2022-09-02T03:50:38;6.80;;;6.30;;
1300;SDS011;59099;48.806;9.160;2022-09-02T03:53:07;6.23;;;5.80;;
1300;SDS011;59099;48.806;9.160;2022-09-02T03:55:35;6.73;;;6.23;;
1300;SDS011;59099;48.806;9.160;2022-09-02T03:58:03;7.10;;;6.50;;
1300;SDS011;59099;48.806;9.160;2022-09-02T04:00:30;5.83;;;5.40;;
1300;SDS011;59099;48.806;9.160;2022-09-02T04:03:01;6.83;;;6.33;;
1300;SDS011;59099;48.806;9.160;2022-09-02T04:05:29;6.57;;;6.07;;
1300;SDS011;59099;48.806;9.160;2022-09-02T04:07:57;8.83;;;5.97;;
1300;SDS011;59099;48.806;9.160;2022-09-02T04:10:24;6.40;;;5.90;;
1300;SDS011;59099;48.806;9.160;2022-09-02T04:12:50;6.83;;;6.23;;
1300;SDS011;59099;48.806;9.160;2022-09-02T04:15:17;5.90;;;5.50;;
1300;SDS011;59099;48.806;9.160;2022-09-02T04:21:25;7.50;;;6.63;;
1300;SDS011;59099;48.806;9.160;2022-09-02T04:23:57;6.97;;;6.37;;
1300;SDS011;59099;48.806;9.160;2022-09-02T04:26:23;6.83;;;6.07;;
1300;SDS011;59099;48.806;9.160;2022-09-02T04:28:52;5.97;;;5.57;;
1300;SDS011;59099;48.806;9.160;2022-09-02T04:31:20;6.63;;;6.00;;
1300;SDS011;59099;48.806;9.160;2022-09-02T04:33:51;6.33;;;5.47;;
1300;SDS011;59099;48.806;9.160;2022-09-02T04:36:18;7.03;;;6.30;;
1300;SDS011;59099;48.806;9.160;2022-09-02T04:38:45;7.63;;;7.03;;
1300;SDS011;59099;48.806;9.160;2022-09-02T04:41:13;7.07;;;6.50;;
1300;SDS011;59099;48.806;9.160;2022-09-02T04:43:41;6.67;;;6.07;;
1300;SDS011;59099;48.806;9.160;2022-09-02T04:46:09;6.73;;;6.03;;
1300;SDS011;59099;48.806;9.160;2022-09-02T04:48:39;6.40;;;5.90;;
1300;SDS011;59099;48.806;9.160;2022-09-02T04:51:07;6.97;;;6.37;;
1300;SDS011;59099;48.806;9.160;2022-09-02T04:53:37;6.57;;;6.07;;
1300;SDS011;59099;48.806;9.160;2022-09-02T04:56:05;7.00;;;6.33;;
1300;SDS011;59099;48.806;9.160;2022-09-02T04:58:34;7.67;;;5.40;;
1300;SDS011;59099;48.806;9.160;2022-09-02T05:01:05;5.87;;;5.37;;
1300;SDS011;59099;48.806;9.160;2022-09-02T05:03:38;6.07;;;5.57;;
1300;SDS011;59099;48.806;9.160;2022-09-02T05:06:07;6.57;;;5.97;;
1300;SDS011;59099;48.806;9.160;2022-09-02T05:08:38;7.33;;;5.93;;
1300;SDS011;59099;48.806;9.160;2022-09-02T05:11:07;7.13;;;5.80;;
1300;SDS011;59099;48.806;9.160;2022-09-02T05:13:34;6.53;;;5.63;;
1300;SDS011;59099;48.806;9.160;2022-09-02T05:16:00;5.37;;;4.90;;
1300;SDS011;59099;48.806;9.160;2022-09-02T05:18:27;5.70;;;5.30;;
1300;SDS011;59099;48.806;9.160;2022-09-02T05:20:54;5.53;;;5.10;;
1300;SDS011;59099;48.806;9.160;2022-09-02T05:23:20;5.90;;;5.50;;
1300;SDS011;59099;48.806;9.160;2022-09-02T05:28:28;6.50;;;6.00;;
1300;SDS011;59099;48.806;9.160;2022-09-02T05:30:54;6.43;;;5.90;;
1300;SDS011;59099;48.806;9.160;2022-09-02T05:33:24;5.97;;;5.40;;
1300;SDS011;59099;48.806;9.160;2022-09-02T05:36:52;6.00;;;5.50;;
1300;SDS011;59099;48.806;9.160;2022-09-02T05:40:14;7.17;;;5.53;;
1300;SDS011;59099;48.806;9.160;2022-09-02T05:42:45;5.77;;;5.37;;
1300;SDS011;59099;48.806;9.160;2022-09-02T05:45:16;5.93;;;5.43;;
1300;SDS011;59099;48.806;9.160;2022-09-02T05:47:55;6.40;;;5.87;;
1300;SDS011;59099;48.806;9.160;2022-09-02T05:50:48;8.07;;;5.70;;
1300;SDS011;59099;48.806;9.160;2022-09-02T05:53:17;6.17;;;5.60;;
1300;SDS011;59099;48.806;9.160;2022-09-02T05:55:54;5.27;;;4.87;;
1300;SDS011;59099;48.806;9.160;2022-09-02T05:58:20;5.37;;;4.90;;
1300;SDS011;59099;48.806;9.160;2022-09-02T06:00:47;5.70;;;5.20;;
1300;SDS011;59099;48.806;9.160;2022-09-02T06:03:13;5.83;;;5.27;;
1300;SDS011;59099;48.806;9.160;2022-09-02T06:05:39;6.13;;;5.40;;
1300;SDS011;59099;48.806;9.160;2022-09-02T06:08:18;5.93;;;5.53;;
1300;SDS011;59099;48.806;9.160;2022-09-02T06:10:44;5.87;;;5.37;;
1300;SDS011;59099;48.806;9.160;2022-09-02T06:13:15;4.70;;;4.40;;
1300;SDS011;59099;48.806;9.160;2022-09-02T06:15:42;10.47;;;5.53;;
1300;SDS011;59099;48.806;9.160;2022-09-02T06:18:09;6.27;;;5.77;;
1300;SDS011;59099;48.806;9.160;2022-09-02T06:20:40;9.20;;;6.27;;
1300;SDS011;59099;48.806;9.160;2022-09-02T06:23:07;5.80;;;5.30;;
1300;SDS011;59099;48.806;9.160;2022-09-02T06:25:37;7.47;;;6.63;;
1300;SDS011;59099;48.806;9.160;2022-09-02T06:28:07;6.10;;;5.60;;
1300;SDS011;59099;48.806;9.160;2022-09-02T06:30:38;8.33;;;6.20;;
1300;SDS011;59099;48.806;9.160;2022-09-02T06:33:06;5.90;;;5.50;;
1300;SDS011;59099;48.806;9.160;2022-09-02T06:35:35;5.70;;;5.20;;
1300;SDS011;59099;48.806;9.160;2022-09-02T06:38:02;5.80;;;5.30;;
1300;SDS011;59099;48.806;9.160;2022-09-02T06:40:29;5.77;;;5.37;;
1300;SDS011;59099;48.806;9.160;2022-09-02T06:42:55;6.50;;;5.90;;
1300;SDS011;59099;48.806;9.160;2022-09-02T06:45:30;6.23;;;5.80;;
1300;SDS011;59099;48.806;9.160;2022-09-02T06:47:58;5.80;;;5.20;;
1300;SDS011;59099;48.806;9.160;2022-09-02T06:50:25;5.17;;;4.73;;
1300;SDS011;59099;48.806;9.160;2022-09-02T06:52:53;5.60;;;5.20;;
1300;SDS011;59099;48.806;9.160;2022-09-02T06:55:19;9.30;;;5.30;;
1300;SDS011;59099;48.806;9.160;2022-09-02T06:57:46;6.63;;;5.97;;
1300;SDS011;59099;48.806;9.160;2022-09-02T07:00:13;5.57;;;5.07;;
1300;SDS011;59099;48.806;9.160;2022-09-02T07:02:41;5.23;;;4.77;;
1300;SDS011;59099;48.806;9.160;2022-09-02T07:05:07;4.97;;;4.47;;
1300;SDS011;59099;48.806;9.160;2022-09-02T07:07:38;4.63;;;4.27;;
1300;SDS011;59099;48.806;9.160;2022-09-02T07:10:09;4.47;;;4.17;;
1300;SDS011;59099;48.806;9.160;2022-09-02T07:12:39;5.90;;;4.07;;
1300;SDS011;59099;48.806;9.160;2022-09-02T07:15:10;3.90;;;3.60;;
1300;SDS011;59099;48.806;9.160;2022-09-02T07:17:38;5.20;;;4.80;;
1300;SDS011;59099;48.806;9.160;2022-09-02T07:20:08;3.47;;;3.17;;
1300;SDS011;59099;48.806;9.160;2022-09-02T07:22:55;3.93;;;3.63;;
1300;SDS011;59099;48.806;9.160;2022-09-02T07:25:24;4.43;;;3.60;;
1300;SDS011;59099;48.806;9.160;2022-09-02T07:27:50;3.83;;;3.43;;
1300;SDS011;59099;48.806;9.160;2022-09-02T07:30:16;5.37;;;3.17;;
1300;SDS011;59099;48.806;9.160;2022-09-02T07:32:45;4.63;;;3.40;;
1300;SDS011;59099;48.806;9.160;2022-09-02T07:35:12;4.50;;;4.07;;
1300;SDS011;59099;48.806;9.160;2022-09-02T07:37:38;4.13;;;3.57;;
1300;SDS011;59099;48.806;9.160;2022-09-02T07:40:07;4.93;;;3.73;;
1300;SDS011;59099;48.806;9.160;2022-09-02T07:42:36;2.93;;;2.73;;
1300;SDS011;59099;48.806;9.160;2022-09-02T07:45:02;4.87;;;3.50;;
1300;SDS011;59099;48.806;9.160;2022-09-02T07:47:30;2.97;;;2.73;;
1300;SDS011;59099;48.806;9.160;2022-09-02T07:49:57;2.97;;;2.77;;
1300;SDS011;59099;48.806;9.160;2022-09-02T07:52:23;3.07;;;2.80;;
1300;SDS011;59099;48.806;9.160;2022-09-02T07:54:49;3.53;;;3.23;;
1300;SDS011;59099;48.806;9.160;2022-09-02T07:57:15;3.20;;;2.80;;
1300;SDS011;59099;48.806;9.160;2022-09-02T07:59:41;3.07;;;2.87;;
1300;SDS011;59099;48.806;9.160;2022-09-02T08:02:07;5.87;;;3.23;;
1300;SDS011;59099;48.806;9.160;2022-09-02T08:04:34;3.73;;;3.20;;
1300;SDS011;59099;48.806;9.160;2022-09-02T08:07:04;2.60;;;2.40;;
1300;SDS011;59099;48.806;9.160;2022-09-02T08:09:30;3.03;;;2.70;;
1300;SDS011;59099;48.806;9.160;2022-09-02T08:11:56;5.77;;;2.63;;
1300;SDS011;59099;48.806;9.160;2022-09-02T08:14:24;2.87;;;2.50;;
1300;SDS011;59099;48.806;9.160;2022-09-02T08:16:52;2.40;;;2.20;;
1300;SDS011;59099;48.806;9.160;2022-09-02T08:19:19;2.60;;;2.40;;
1300;SDS011;59099;48.806;9.160;2022-09-02T08:21:45;3.80;;;3.17;;
1300;SDS011;59099;48.806;9.160;2022-09-02T08:24:11;3.10;;;2.47;;
1300;SDS011;59099;48.806;9.160;2022-09-02T08:26:37;2.73;;;2.50;;
1300;SDS011;59099;48.806;9.160;2022-09-02T08:29:03;2.30;;;2.20;;
1300;SDS011;59099;48.806;9.160;2022-09-02T08:31:30;2.37;;;2.20;;
1300;SDS011;59099;48.806;9.160;2022-09-02T08:33:57;2.30;;;2.13;;
1300;SDS011;59099;48.806;9.160;2022-09-02T08:36:23;2.63;;;2.43;;
1300;SDS011;59099;48.806;9.160;2022-09-02T08:38:50;2.50;;;2.30;;
1300;SDS011;59099;48.806;9.160;2022-09-02T08:41:20;3.37;;;2.33;;
1300;SDS011;59099;48.806;9.160;2022-09-02T08:43:46;6.30;;;2.43;;
1300;SDS011;59099;48.806;9.160;2022-09-02T08:46:15;3.50;;;2.30;;
1300;SDS011;59099;48.806;9.160;2022-09-02T08:56:36;2.30;;;2.10;;
1300;SDS011;59099;48.806;9.160;2022-09-02T08:59:02;2.90;;;2.17;;
1300;SDS011;59099;48.806;9.160;2022-09-02T09:01:45;2.47;;;1.87;;
1300;SDS011;59099;48.806;9.160;2022-09-02T09:12:32;1.90;;;1.47;;
1300;SDS011;59099;48.806;9.160;2022-09-02T09:17:54;3.43;;;1.57;;
1300;SDS011;59099;48.806;9.160;2022-09-02T09:20:39;1.53;;;1.43;;
1300;SDS011;59099;48.806;9.160;2022-09-02T09:23:17;1.23;;;1.23;;
1300;SDS011;59099;48.806;9.160;2022-09-02T09:26:06;2.80;;;1.40;;
1300;SDS011;59099;48.806;9.160;2022-09-02T09:28:43;1.30;;;1.30;;
1300;SDS011;59099;48.806;9.160;2022-09-02T09:31:13;1.43;;;1.33;;
1300;SDS011;59099;48.806;9.160;2022-09-02T09:33:55;1.33;;;1.23;;
1300;SDS011;59099;48.806;9.160;2022-09-02T09:36:31;2.27;;;1.80;;
1300;SDS011;59099;48.806;9.160;2022-09-02T09:39:18;4.47;;;1.50;;
1300;SDS011;59099;48.806;9.160;2022-09-02T09:41:44;1.37;;;1.27;;
1300;SDS011;59099;48.806;9.160;2022-09-02T09:49:47;1.60;;;1.10;;
1300;SDS011;59099;48.806;9.160;2022-09-02T09:52:22;1.40;;;1.30;;
1300;SDS011;59099;48.806;9.160;2022-09-02T09:57:40;1.30;;;1.20;;
1300;SDS011;59099;48.806;9.160;2022-09-02T10:00:12;1.37;;;1.13;;
1300;SDS011;59099;48.806;9.160;2022-09-02T10:02:46;4.60;;;1.47;;
1300;SDS011;59099;48.806;9.160;2022-09-02T10:05:21;1.87;;;1.47;;
1300;SDS011;59099;48.806;9.160;2022-09-02T10:08:04;1.30;;;1.20;;
1300;SDS011;59099;48.806;9.160;2022-09-02T10:11:04;1.10;;;1.00;;
1300;SDS011;59099;48.806;9.160;2022-09-02T10:13:34;2.20;;;1.30;;
1300;SDS011;59099;48.806;9.160;2022-09-02T10:18:56;1.60;;;1.50;;
1300;SDS011;59099;48.806;9.160;2022-09-02T10:24:10;2.30;;;1.73;;
1300;SDS011;59099;48.806;9.160;2022-09-02T10:27:08;2.03;;;1.30;;
1300;SDS011;59099;48.806;9.160;2022-09-02T10:35:10;1.00;;;1.00;;
1300;SDS011;59099;48.806;9.160;2022-09-02T10:37:52;0.90;;;0.90;;
1300;SDS011;59099;48.806;9.160;2022-09-02T10:40:42;1.60;;;1.27;;
1300;SDS011;59099;48.806;9.160;2022-09-02T10:45:59;3.23;;;1.20;;
1300;SDS011;59099;48.806;9.160;2022-09-02T10:51:21;1.27;;;1.17;;
1300;SDS011;59099;48.806;9.160;2022-09-02T10:57:07;1.10;;;0.83;;
1300;SDS011;59099;48.806;9.160;2022-09-02T10:59:38;1.60;;;1.10;;
1300;SDS011;59099;48.806;9.160;2022-09-02T11:05:08;1.10;;;1.10;;
1300;SDS011;59099;48.806;9.160;2022-09-02T11:07:43;2.37;;;1.37;;
1300;SDS011;59099;48.806;9.160;2022-09-02T11:10:27;0.83;;;0.80;;
1300;SDS011;59099;48.806;9.160;2022-09-02T11:13:08;4.63;;;1.93;;
1300;SDS011;59099;48.806;9.160;2022-09-02T11:15:46;1.37;;;1.27;;
1300;SDS011;59099;48.806;9.160;2022-09-02T11:18:21;3.40;;;1.23;;
1300;SDS011;59099;48.806;9.160;2022-09-02T11:23:40;1.80;;;1.20;;
1300;SDS011;59099;48.806;9.160;2022-09-02T11:26:15;0.83;;;0.80;;
1300;SDS011;59099;48.806;9.160;2022-09-02T11:28:54;1.50;;;1.20;;
1300;SDS011;59099;48.806;9.160;2022-09-02T11:31:31;0.90;;;0.90;;
1300;SDS011;59099;48.806;9.160;2022-09-02T11:37:03;2.33;;;1.20;;
1300;SDS011;59099;48.806;9.160;2022-09-02T11:50:00;2.17;;;1.20;;
1300;SDS011;59099;48.806;9.160;2022-09-02T11:57:56;1.20;;;1.07;;
1300;SDS011;59099;48.806;9.160;2022-09-02T12:00:30;1.97;;;1.30;;
1300;SDS011;59099;48.806;9.160;2022-09-02T12:03:07;1.53;;;1.33;;
1300;SDS011;59099;48.806;9.160;2022-09-02T12:08:11;1.47;;;1.37;;
1300;SDS011;59099;48.806;9.160;2022-09-02T12:11:00;1.50;;;1.40;;
1300;SDS011;59099;48.806;9.160;2022-09-02T12:13:33;2.30;;;0.93;;
1300;SDS011;59099;48.806;9.160;2022-09-02T12:16:57;0.97;;;0.97;;
1300;SDS011;59099;48.806;9.160;2022-09-02T12:21:20;1.30;;;1.20;;
1300;SDS011;59099;48.806;9.160;2022-09-02T12:26:17;1.20;;;1.10;;
1300;SDS011;59099;48.806;9.160;2022-09-02T12:28:52;1.80;;;1.60;;
1300;SDS011;59099;48.806;9.160;2022-09-02T12:31:38;1.20;;;1.10;;
1300;SDS011;59099;48.806;9.160;2022-09-02T12:41:53;1.30;;;1.20;;
1300;SDS011;59099;48.806;9.160;2022-09-02T12:47:35;2.33;;;1.13;;
1300;SDS011;59099;48.806;9.160;2022-09-02T12:55:41;0.93;;;0.90;;
1300;SDS011;59099;48.806;9.160;2022-09-02T13:11:22;1.40;;;1.30;;
1300;SDS011;59099;48.806;9.160;2022-09-02T13:33:42;1.80;;;1.30;;
1300;SDS011;59099;48.806;9.160;2022-09-02T13:36:07;1.03;;;1.03;;
1300;SDS011;59099;48.806;9.160;2022-09-02T13:38:34;1.50;;;1.20;;
1300;SDS011;59099;48.806;9.160;2022-09-02T13:41:00;1.00;;;1.00;;
1300;SDS011;59099;48.806;9.160;2022-09-02T13:43:26;1.43;;;1.33;;
1300;SDS011;59099;48.806;9.160;2022-09-02T13:45:53;1.43;;;1.33;;
1300;SDS011;59099;48.806;9.160;2022-09-02T13:48:25;1.57;;;1.30;;
1300;SDS011;59099;48.806;9.160;2022-09-02T13:50:55;1.43;;;1.33;;
1300;SDS011;59099;48.806;9.160;2022-09-02T13:53:25;1.47;;;1.37;;
1300;SDS011;59099;48.806;9.160;2022-09-02T13:55:59;2.00;;;1.50;;
1300;SDS011;59099;48.806;9.160;2022-09-02T14:00:55;1.53;;;1.43;;
1300;SDS011;59099;48.806;9.160;2022-09-02T14:03:22;1.40;;;1.30;;
1300;SDS011;59099;48.806;9.160;2022-09-02T14:05:49;4.23;;;1.40;;
1300;SDS011;59099;48.806;9.160;2022-09-02T14:08:23;1.20;;;1.20;;
1300;SDS011;59099;48.806;9.160;2022-09-02T14:10:53;1.40;;;1.30;;
1300;SDS011;59099;48.806;9.160;2022-09-02T14:13:20;1.30;;;1.20;;
1300;SDS011;59099;48.806;9.160;2022-09-02T14:15:47;1.70;;;1.60;;
1300;SDS011;59099;48.806;9.160;2022-09-02T14:23:18;1.60;;;1.50;;
1300;SDS011;59099;48.806;9.160;2022-09-02T14:25:53;1.40;;;1.30;;
1300;SDS011;59099;48.806;9.160;2022-09-02T14:28:22;1.23;;;1.23;;
1300;SDS011;59099;48.806;9.160;2022-09-02T14:30:56;1.33;;;1.00;;
1300;SDS011;59099;48.806;9.160;2022-09-02T14:33:27;1.37;;;1.23;;
1300;SDS011;59099;48.806;9.160;2022-09-02T14:38:36;1.50;;;1.30;;
1300;SDS011;59099;48.806;9.160;2022-09-02T14:43:44;2.73;;;1.60;;
1300;SDS011;59099;48.806;9.160;2022-09-02T14:48:53;1.43;;;1.27;;
1300;SDS011;59099;48.806;9.160;2022-09-02T14:51:31;1.80;;;1.30;;
1300;SDS011;59099;48.806;9.160;2022-09-02T14:54:03;1.90;;;1.60;;
1300;SDS011;59099;48.806;9.160;2022-09-02T14:59:29;3.80;;;1.30;;
1300;SDS011;59099;48.806;9.160;2022-09-02T15:01:55;1.00;;;1.00;;
1300;SDS011;59099;48.806;9.160;2022-09-02T15:04:22;3.03;;;1.40;;
1300;SDS011;59099;48.806;9.160;2022-09-02T15:06:49;1.30;;;1.20;;
1300;SDS011;59099;48.806;9.160;2022-09-02T15:09:15;2.70;;;1.60;;
1300;SDS011;59099;48.806;9.160;2022-09-02T15:11:52;1.37;;;1.27;;
1300;SDS011;59099;48.806;9.160;2022-09-02T15:14:18;2.87;;;1.53;;
1300;SDS011;59099;48.806;9.160;2022-09-02T15:16:44;2.40;;;1.43;;
1300;SDS011;59099;48.806;9.160;2022-09-02T15:19:10;2.00;;;1.90;;
1300;SDS011;59099;48.806;9.160;2022-09-02T15:21:36;1.47;;;1.37;;
1300;SDS011;59099;48.806;9.160;2022-09-02T15:24:01;1.10;;;1.00;;
1300;SDS011;59099;48.806;9.160;2022-09-02T15:26:27;1.60;;;1.50;;
1300;SDS011;59099;48.806;9.160;2022-09-02T15:28:53;1.70;;;1.60;;
1300;SDS011;59099;48.806;9.160;2022-09-02T15:31:19;2.77;;;1.63;;
1300;SDS011;59099;48.806;9.160;2022-09-02T15:33:48;1.57;;;1.47;;
1300;SDS011;59099;48.806;9.160;2022-09-02T15:36:15;3.53;;;1.50;;
1300;SDS011;59099;48.806;9.160;2022-09-02T15:38:42;2.53;;;2.00;;
1300;SDS011;59099;48.806;9.160;2022-09-02T15:43:47;1.73;;;1.60;;
1300;SDS011;59099;48.806;9.160;2022-09-02T15:46:24;1.70;;;1.30;;
1300;SDS011;59099;48.806;9.160;2022-09-02T15:48:51;3.13;;;1.37;;
1300;SDS011;59099;48.806;9.160;2022-09-02T15:51:19;1.23;;;1.13;;
1300;SDS011;59099;48.806;9.160;2022-09-02T15:53:46;1.80;;;1.70;;
1300;SDS011;59099;48.806;9.160;2022-09-02T15:58:43;3.10;;;1.57;;
1300;SDS011;59099;48.806;9.160;2022-09-02T16:01:09;6.13;;;2.03;;
1300;SDS011;59099;48.806;9.160;2022-09-02T16:03:35;3.50;;;2.20;;
1300;SDS011;59099;48.806;9.160;2022-09-02T16:06:02;3.43;;;2.10;;
1300;SDS011;59099;48.806;9.160;2022-09-02T16:08:29;2.00;;;1.50;;
1300;SDS011;59099;48.806;9.160;2022-09-02T16:10:55;4.13;;;1.67;;
1300;SDS011;59099;48.806;9.160;2022-09-02T16:13:20;1.60;;;1.50;;
1300;SDS011;59099;48.806;9.160;2022-09-02T16:15:46;1.77;;;1.13;;
1300;SDS011;59099;48.806;9.160;2022-09-02T16:18:12;1.57;;;1.47;;
1300;SDS011;59099;48.806;9.160;2022-09-02T16:20:38;1.60;;;1.50;;
1300;SDS011;59099;48.806;9.160;2022-09-02T16:23:04;1.43;;;1.33;;
1300;SDS011;59099;48.806;9.160;2022-09-02T16:25:29;1.43;;;1.30;;
1300;SDS011;59099;48.806;9.160;2022-09-02T16:27:55;1.57;;;1.17;;
1300;SDS011;59099;48.806;9.160;2022-09-02T16:30:21;1.57;;;1.47;;
1300;SDS011;59099;48.806;9.160;2022-09-02T16:32:47;1.40;;;1.30;;
1300;SDS011;59099;48.806;9.160;2022-09-02T16:35:15;3.20;;;1.77;;
1300;SDS011;59099;48.806;9.160;2022-09-02T16:37:41;1.77;;;1.63;;
1300;SDS011;59099;48.806;9.160;2022-09-02T16:40:07;1.50;;;1.40;;
1300;SDS011;59099;48.806;9.160;2022-09-02T16:42:33;2.13;;;1.50;;
1300;SDS011;59099;48.806;9.160;2022-09-02T16:44:59;2.13;;;2.00;;
1300;SDS011;59099;48.806;9.160;2022-09-02T16:47:24;2.43;;;1.60;;
1300;SDS011;59099;48.806;9.160;2022-09-02T16:49:51;1.50;;;1.40;;
1300;SDS011;59099;48.806;9.160;2022-09-02T16:52:16;2.63;;;1.70;;
1300;SDS011;59099;48.806;9.160;2022-09-02T16:54:42;1.93;;;1.60;;
1300;SDS011;59099;48.806;9.160;2022-09-02T16:57:08;1.80;;;1.70;;
1300;SDS011;59099;48.806;9.160;2022-09-02T16:59:34;2.10;;;1.90;;
1300;SDS011;59099;48.806;9.160;2022-09-02T17:01:59;2.70;;;2.10;;
1300;SDS011;59099;48.806;9.160;2022-09-02T17:04:25;3.53;;;2.00;;
1300;SDS011;59099;48.806;9.160;2022-09-02T17:06:51;1.80;;;1.70;;
1300;SDS011;59099;48.806;9.160;2022-09-02T17:09:17;1.77;;;1.67;;
1300;SDS011;59099;48.806;9.160;2022-09-02T17:11:43;1.63;;;1.53;;
1300;SDS011;59099;48.806;9.160;2022-09-02T17:14:10;2.20;;;1.67;;
1300;SDS011;59099;48.806;9.160;2022-09-02T17:16:38;2.20;;;2.00;;
1300;SDS011;59099;48.806;9.160;2022-09-02T17:19:05;1.53;;;1.43;;
1300;SDS011;59099;48.806;9.160;2022-09-02T17:21:36;2.43;;;1.80;;
1300;SDS011;59099;48.806;9.160;2022-09-02T17:24:05;1.70;;;1.60;;
1300;SDS011;59099;48.806;9.160;2022-09-02T17:26:33;4.23;;;1.80;;
1300;SDS011;59099;48.806;9.160;2022-09-02T17:29:00;1.60;;;1.50;;
1300;SDS011;59099;48.806;9.160;2022-09-02T17:31:32;4.83;;;4.33;;
1300;SDS011;59099;48.806;9.160;2022-09-02T17:34:00;2.60;;;2.40;;
1300;SDS011;59099;48.806;9.160;2022-09-02T17:36:29;2.53;;;1.90;;
1300;SDS011;59099;48.806;9.160;2022-09-02T17:39:00;2.17;;;1.97;;
1300;SDS011;59099;48.806;9.160;2022-09-02T17:41:29;2.10;;;1.90;;
1300;SDS011;59099;48.806;9.160;2022-09-02T17:44:13;3.97;;;3.10;;
1300;SDS011;59099;48.806;9.160;2022-09-02T17:46:40;3.80;;;2.97;;
1300;SDS011;59099;48.806;9.160;2022-09-02T17:49:07;11.90;;;10.70;;
1300;SDS011;59099;48.806;9.160;2022-09-02T17:51:34;4.90;;;4.50;;
1300;SDS011;59099;48.806;9.160;2022-09-02T17:54:00;14.50;;;12.97;;